createdAt,value
2019-05-06T00:00:56.268Z,993.07
2019-05-06T00:01:50.187Z,993.06
2019-05-06T00:02:50.177Z,993.07
2019-05-06T00:03:50.172Z,993.04
2019-05-06T00:04:50.161Z,993.01
2019-05-06T00:05:50.150Z,993.03
2019-05-06T00:06:50.139Z,993.04
2019-05-06T00:07:50.131Z,993.02
2019-05-06T00:08:50.423Z,993.03
2019-05-06T00:09:50.113Z,993
2019-05-06T00:10:50.106Z,992.98
2019-05-06T00:11:50.107Z,993.01
2019-05-06T00:12:50.084Z,993.04
2019-05-06T00:13:50.074Z,993.09
2019-05-06T00:14:50.070Z,993.06
2019-05-06T00:15:50.062Z,993.08
2019-05-06T00:16:50.048Z,993.07
2019-05-06T00:17:50.051Z,993.09
2019-05-06T00:18:50.027Z,993.09
2019-05-06T00:19:50.021Z,993.06
2019-05-06T00:20:50.009Z,993.1
2019-05-06T00:21:50.001Z,993.05
2019-05-06T00:22:49.990Z,993.08
2019-05-06T00:23:49.981Z,993.08
2019-05-06T00:24:49.970Z,993.09
2019-05-06T00:25:49.961Z,993.12
2019-05-06T00:26:49.951Z,993.08
2019-05-06T00:27:49.944Z,993.14
2019-05-06T00:28:49.935Z,993.13
2019-05-06T00:29:49.928Z,993.12
2019-05-06T00:30:49.919Z,993.1
2019-05-06T00:31:49.906Z,993.14
2019-05-06T00:32:49.899Z,993.15
2019-05-06T00:33:49.887Z,993.15
2019-05-06T00:34:49.877Z,993.15
2019-05-06T00:35:49.877Z,993.12
2019-05-06T00:36:49.859Z,993.12
2019-05-06T00:37:49.850Z,993.13
2019-05-06T00:38:49.837Z,993.14
2019-05-06T00:39:49.828Z,993.12
2019-05-06T00:40:49.830Z,993.09
2019-05-06T00:41:49.810Z,993.17
2019-05-06T00:42:49.802Z,993.12
2019-05-06T00:43:49.800Z,993.18
2019-05-06T00:44:49.784Z,993.2
2019-05-06T00:45:49.777Z,993.15
2019-05-06T00:46:49.769Z,993.15
2019-05-06T00:47:49.750Z,993.18
2019-05-06T00:48:49.744Z,993.15
2019-05-06T00:49:49.731Z,993.16
2019-05-06T00:50:49.726Z,993.23
2019-05-06T00:51:49.721Z,993.23
2019-05-06T00:52:49.702Z,993.28
2019-05-06T00:53:49.693Z,993.25
2019-05-06T00:54:49.694Z,993.27
2019-05-06T00:55:49.672Z,993.29
2019-05-06T00:56:49.664Z,993.23
2019-05-06T00:57:49.665Z,993.28
2019-05-06T00:58:49.656Z,993.23
2019-05-06T00:59:49.634Z,993.26
2019-05-06T01:00:49.637Z,993.29
2019-05-06T01:01:49.616Z,993.3
2019-05-06T01:02:49.609Z,993.31
2019-05-06T01:03:49.596Z,993.28
2019-05-06T01:04:49.587Z,993.31
2019-05-06T01:05:49.576Z,993.33
2019-05-06T01:06:49.588Z,993.3
2019-05-06T01:07:49.599Z,993.32
2019-05-06T01:08:49.546Z,993.31
2019-05-06T01:09:49.539Z,993.3
2019-05-06T01:10:49.532Z,993.24
2019-05-06T01:11:49.520Z,993.33
2019-05-06T01:12:49.508Z,993.28
2019-05-06T01:13:49.499Z,993.35
2019-05-06T01:14:49.495Z,993.32
2019-05-06T01:15:49.488Z,993.36
2019-05-06T01:16:49.471Z,993.33
2019-05-06T01:17:49.459Z,993.36
2019-05-06T01:18:49.456Z,993.33
2019-05-06T01:19:49.456Z,993.31
2019-05-06T01:20:49.434Z,993.34
2019-05-06T01:21:49.433Z,993.34
2019-05-06T01:22:49.413Z,993.31
2019-05-06T01:23:49.404Z,993.3
2019-05-06T01:24:49.397Z,993.35
2019-05-06T01:25:49.382Z,993.4
2019-05-06T01:26:49.373Z,993.33
2019-05-06T01:27:49.363Z,993.39
2019-05-06T01:28:49.353Z,993.37
2019-05-06T01:29:49.343Z,993.39
2019-05-06T01:30:49.334Z,993.4
2019-05-06T01:31:49.323Z,993.36
2019-05-06T01:32:49.319Z,993.36
2019-05-06T01:33:49.306Z,993.35
2019-05-06T01:34:49.297Z,993.37
2019-05-06T01:35:49.289Z,993.37
2019-05-06T01:36:49.290Z,993.34
2019-05-06T01:37:49.268Z,993.38
2019-05-06T01:38:49.257Z,993.37
2019-05-06T01:39:49.445Z,993.37
2019-05-06T01:40:49.240Z,993.33
2019-05-06T01:41:49.230Z,993.37
2019-05-06T01:42:49.223Z,993.37
2019-05-06T01:43:49.207Z,993.4
2019-05-06T01:44:49.197Z,993.43
2019-05-06T01:45:49.190Z,993.42
2019-05-06T01:46:49.180Z,993.43
2019-05-06T01:47:49.179Z,993.43
2019-05-06T01:48:49.160Z,993.49
2019-05-06T01:49:49.175Z,993.49
2019-05-06T01:50:49.138Z,993.48
2019-05-06T01:51:49.128Z,993.49
2019-05-06T01:52:49.118Z,993.49
2019-05-06T01:53:49.105Z,993.44
2019-05-06T01:54:49.101Z,993.46
2019-05-06T01:55:49.088Z,993.46
2019-05-06T01:56:49.080Z,993.5
2019-05-06T01:57:49.071Z,993.53
2019-05-06T01:58:49.075Z,993.48
2019-05-06T01:59:49.058Z,993.5
2019-05-06T02:00:49.044Z,993.55
2019-05-06T02:01:57.896Z,993.5
2019-05-06T02:02:49.045Z,993.49
2019-05-06T02:03:49.006Z,993.52
2019-05-06T02:04:48.996Z,993.57
2019-05-06T02:05:48.995Z,993.51
2019-05-06T02:06:48.977Z,993.52
2019-05-06T02:07:48.973Z,993.51
2019-05-06T02:08:48.962Z,993.5
2019-05-06T02:09:48.953Z,993.54
2019-05-06T02:10:48.938Z,993.52
2019-05-06T02:11:48.944Z,993.53
2019-05-06T02:12:48.930Z,993.49
2019-05-06T02:13:48.910Z,993.53
2019-05-06T02:14:48.898Z,993.5
2019-05-06T02:15:48.887Z,993.54
2019-05-06T02:16:48.879Z,993.51
2019-05-06T02:17:48.871Z,993.5
2019-05-06T02:18:48.874Z,993.52
2019-05-06T02:19:48.850Z,993.51
2019-05-06T02:20:48.840Z,993.51
2019-05-06T02:21:48.828Z,993.5
2019-05-06T02:22:48.820Z,993.51
2019-05-06T02:23:48.809Z,993.54
2019-05-06T02:24:48.799Z,993.52
2019-05-06T02:25:48.798Z,993.54
2019-05-06T02:26:48.782Z,993.56
2019-05-06T02:27:48.775Z,993.5
2019-05-06T02:28:48.761Z,993.5
2019-05-06T02:29:48.752Z,993.49
2019-05-06T02:30:48.753Z,993.51
2019-05-06T02:31:48.748Z,993.52
2019-05-06T02:32:48.726Z,993.52
2019-05-06T02:33:48.720Z,993.56
2019-05-06T02:34:48.708Z,993.57
2019-05-06T02:35:48.698Z,993.56
2019-05-06T02:36:48.694Z,993.59
2019-05-06T02:37:48.697Z,993.56
2019-05-06T02:38:52.239Z,993.59
2019-05-06T02:39:48.660Z,993.59
2019-05-06T02:40:48.648Z,993.6
2019-05-06T02:41:48.643Z,993.64
2019-05-06T02:42:48.636Z,993.6
2019-05-06T02:43:48.629Z,993.62
2019-05-06T02:44:48.619Z,993.64
2019-05-06T02:45:48.603Z,993.64
2019-05-06T02:46:48.593Z,993.59
2019-05-06T02:47:48.585Z,993.59
2019-05-06T02:48:48.579Z,993.48
2019-05-06T02:49:48.565Z,993.62
2019-05-06T02:50:48.557Z,993.59
2019-05-06T02:51:48.545Z,993.61
2019-05-06T02:52:48.538Z,993.62
2019-05-06T02:53:48.544Z,993.63
2019-05-06T02:54:48.517Z,993.62
2019-05-06T02:55:48.514Z,993.62
2019-05-06T02:56:48.499Z,993.62
2019-05-06T02:57:48.488Z,993.61
2019-05-06T02:58:48.483Z,993.61
2019-05-06T02:59:48.476Z,993.65
2019-05-06T03:00:48.458Z,993.68
2019-05-06T03:01:48.452Z,993.72
2019-05-06T03:02:48.763Z,993.67
2019-05-06T03:03:48.429Z,993.69
2019-05-06T03:04:48.420Z,993.69
2019-05-06T03:05:48.415Z,993.71
2019-05-06T03:06:48.401Z,993.72
2019-05-06T03:07:48.393Z,993.69
2019-05-06T03:08:48.382Z,993.73
2019-05-06T03:09:48.373Z,993.74
2019-05-06T03:10:48.665Z,993.76
2019-05-06T03:11:48.352Z,993.71
2019-05-06T03:12:48.345Z,993.68
2019-05-06T03:13:48.346Z,993.72
2019-05-06T03:14:48.326Z,993.74
2019-05-06T03:15:48.327Z,993.75
2019-05-06T03:16:48.306Z,993.76
2019-05-06T03:17:48.297Z,993.73
2019-05-06T03:18:48.294Z,993.72
2019-05-06T03:19:48.297Z,993.73
2019-05-06T03:20:48.295Z,993.73
2019-05-06T03:21:48.259Z,993.74
2019-05-06T03:22:48.266Z,993.76
2019-05-06T03:23:48.242Z,993.77
2019-05-06T03:24:48.228Z,993.77
2019-05-06T03:25:48.219Z,993.79
2019-05-06T03:26:48.209Z,993.77
2019-05-06T03:27:48.202Z,993.81
2019-05-06T03:28:48.193Z,993.8
2019-05-06T03:29:48.184Z,993.85
2019-05-06T03:30:48.177Z,993.82
2019-05-06T03:31:48.173Z,993.79
2019-05-06T03:33:23.106Z,993.83
2019-05-06T03:35:35.709Z,993.84
2019-05-06T03:36:42.050Z,993.88
2019-05-06T03:37:39.445Z,993.88
2019-05-06T03:38:39.435Z,993.87
2019-05-06T03:39:39.423Z,993.87
2019-05-06T03:40:42.689Z,993.86
2019-05-06T03:41:43.408Z,993.89
2019-05-06T03:42:39.398Z,993.84
2019-05-06T03:43:39.388Z,993.92
2019-05-06T03:44:39.409Z,993.89
2019-05-06T03:45:39.370Z,993.89
2019-05-06T03:46:39.366Z,993.88
2019-05-06T03:47:39.354Z,993.94
2019-05-06T03:48:39.339Z,993.94
2019-05-06T03:49:39.330Z,993.91
2019-05-06T03:50:39.323Z,993.96
2019-05-06T03:51:39.333Z,993.93
2019-05-06T03:52:39.306Z,993.94
2019-05-06T03:53:39.282Z,993.9
2019-05-06T03:54:39.272Z,993.96
2019-05-06T03:55:39.264Z,993.94
2019-05-06T03:56:39.251Z,994.01
2019-05-06T03:57:39.239Z,993.94
2019-05-06T03:58:39.232Z,993.99
2019-05-06T03:59:39.223Z,994
2019-05-06T04:00:39.214Z,993.95
2019-05-06T04:01:39.202Z,993.94
2019-05-06T04:02:39.946Z,993.98
2019-05-06T04:03:46.702Z,993.99
2019-05-06T04:04:39.175Z,993.99
2019-05-06T04:05:39.163Z,994
2019-05-06T04:06:39.151Z,993.97
2019-05-06T04:07:39.148Z,994
2019-05-06T04:08:39.139Z,993.99
2019-05-06T04:09:39.123Z,993.97
2019-05-06T04:10:39.116Z,994.04
2019-05-06T04:11:39.106Z,993.98
2019-05-06T04:12:39.094Z,994.02
2019-05-06T04:13:39.082Z,994.04
2019-05-06T04:14:39.076Z,994.03
2019-05-06T04:15:39.070Z,994.05
2019-05-06T04:16:39.065Z,994.1
2019-05-06T04:17:39.053Z,994.11
2019-05-06T04:18:39.040Z,994.09
2019-05-06T04:19:39.030Z,994.1
2019-05-06T04:20:39.017Z,994.11
2019-05-06T04:21:39.007Z,994.12
2019-05-06T04:22:38.998Z,994.13
2019-05-06T04:23:39.003Z,994.13
2019-05-06T04:24:38.991Z,994.13
2019-05-06T04:25:38.970Z,994.15
2019-05-06T04:26:38.959Z,994.1
2019-05-06T04:27:38.950Z,994.15
2019-05-06T04:28:38.948Z,994.12
2019-05-06T04:29:38.931Z,994.14
2019-05-06T04:30:38.922Z,994.16
2019-05-06T04:31:38.915Z,994.15
2019-05-06T04:32:38.914Z,994.17
2019-05-06T04:33:38.892Z,994.16
2019-05-06T04:34:38.882Z,994.17
2019-05-06T04:35:38.875Z,994.17
2019-05-06T04:36:38.865Z,994.23
2019-05-06T04:37:38.857Z,994.21
2019-05-06T04:38:38.844Z,994.22
2019-05-06T04:39:38.844Z,994.2
2019-05-06T04:40:38.829Z,994.22
2019-05-06T04:41:38.833Z,994.22
2019-05-06T04:42:38.811Z,994.25
2019-05-06T04:43:38.800Z,994.24
2019-05-06T04:44:38.808Z,994.26
2019-05-06T04:45:38.788Z,994.35
2019-05-06T04:46:38.771Z,994.34
2019-05-06T04:47:38.760Z,994.32
2019-05-06T04:48:38.754Z,994.32
2019-05-06T04:49:38.743Z,994.33
2019-05-06T04:50:38.741Z,994.33
2019-05-06T04:51:38.729Z,994.34
2019-05-06T04:52:38.725Z,994.32
2019-05-06T04:53:38.704Z,994.36
2019-05-06T04:54:38.718Z,994.42
2019-05-06T04:55:38.684Z,994.39
2019-05-06T04:56:38.691Z,994.38
2019-05-06T04:57:38.670Z,994.42
2019-05-06T04:58:38.658Z,994.41
2019-05-06T04:59:38.645Z,994.38
2019-05-06T05:00:38.637Z,994.41
2019-05-06T05:01:38.626Z,994.37
2019-05-06T05:02:38.625Z,994.39
2019-05-06T05:03:38.608Z,994.39
2019-05-06T05:04:38.632Z,994.38
2019-05-06T05:05:38.586Z,994.35
2019-05-06T05:06:38.577Z,994.42
2019-05-06T05:07:38.568Z,994.42
2019-05-06T05:08:38.557Z,994.42
2019-05-06T05:09:38.550Z,994.47
2019-05-06T05:10:38.556Z,994.44
2019-05-06T05:11:38.527Z,994.49
2019-05-06T05:12:39.325Z,994.48
2019-05-06T05:13:38.509Z,994.46
2019-05-06T05:14:38.507Z,994.51
2019-05-06T05:15:38.504Z,994.51
2019-05-06T05:16:38.478Z,994.55
2019-05-06T05:17:38.472Z,994.54
2019-05-06T05:18:38.462Z,994.54
2019-05-06T05:19:38.450Z,994.56
2019-05-06T05:20:43.766Z,994.54
2019-05-06T05:21:38.430Z,994.56
2019-05-06T05:22:38.423Z,994.58
2019-05-06T05:23:38.411Z,994.57
2019-05-06T05:24:38.403Z,994.55
2019-05-06T05:25:38.393Z,994.56
2019-05-06T05:26:38.384Z,994.56
2019-05-06T05:27:38.376Z,994.57
2019-05-06T05:28:38.364Z,994.53
2019-05-06T05:29:38.356Z,994.5
2019-05-06T05:30:38.346Z,994.53
2019-05-06T05:31:38.340Z,994.53
2019-05-06T05:32:38.329Z,994.56
2019-05-06T05:33:38.319Z,994.52
2019-05-06T05:34:40.711Z,994.52
2019-05-06T05:35:38.308Z,994.56
2019-05-06T05:36:38.288Z,994.56
2019-05-06T05:37:38.281Z,994.64
2019-05-06T05:38:38.273Z,994.61
2019-05-06T05:39:38.263Z,994.63
2019-05-06T05:40:38.257Z,994.65
2019-05-06T05:41:38.247Z,994.68
2019-05-06T05:42:38.244Z,994.67
2019-05-06T05:43:39.577Z,994.68
2019-05-06T05:44:38.221Z,994.7
2019-05-06T05:45:38.211Z,994.68
2019-05-06T05:46:38.225Z,994.7
2019-05-06T05:47:38.196Z,994.68
2019-05-06T05:48:38.188Z,994.68
2019-05-06T05:49:38.184Z,994.68
2019-05-06T05:50:38.174Z,994.71
2019-05-06T05:51:38.162Z,994.72
2019-05-06T05:52:38.157Z,994.73
2019-05-06T05:53:38.149Z,994.74
2019-05-06T05:54:38.143Z,994.72
2019-05-06T05:55:38.130Z,994.75
2019-05-06T05:56:38.133Z,994.75
2019-05-06T05:57:38.116Z,994.75
2019-05-06T05:58:38.108Z,994.79
2019-05-06T05:59:38.100Z,994.82
2019-05-06T06:00:38.091Z,994.83
2019-05-06T06:01:38.084Z,994.83
2019-05-06T06:02:38.080Z,994.84
2019-05-06T06:03:38.075Z,994.85
2019-05-06T06:04:50.633Z,994.84
2019-05-06T06:05:38.060Z,994.91
2019-05-06T06:06:38.047Z,994.88
2019-05-06T06:07:38.045Z,994.9
2019-05-06T06:08:38.035Z,994.89
2019-05-06T06:09:38.024Z,994.92
2019-05-06T06:10:38.018Z,994.87
2019-05-06T06:11:38.010Z,994.84
2019-05-06T06:12:38.008Z,994.9
2019-05-06T06:13:38.007Z,994.85
2019-05-06T06:14:37.989Z,994.88
2019-05-06T06:15:37.983Z,994.9
2019-05-06T06:16:37.974Z,994.94
2019-05-06T06:17:37.965Z,994.86
2019-05-06T06:18:37.964Z,994.88
2019-05-06T06:19:37.959Z,994.93
2019-05-06T06:20:37.948Z,994.91
2019-05-06T06:21:37.945Z,994.94
2019-05-06T06:22:37.942Z,994.92
2019-05-06T06:23:37.925Z,994.94
2019-05-06T06:24:37.925Z,994.91
2019-05-06T06:25:37.914Z,994.97
2019-05-06T06:26:37.910Z,994.95
2019-05-06T06:27:37.904Z,994.98
2019-05-06T06:28:37.894Z,994.98
2019-05-06T06:29:37.892Z,994.98
2019-05-06T06:30:37.882Z,994.96
2019-05-06T06:31:37.871Z,994.94
2019-05-06T06:32:37.870Z,994.97
2019-05-06T06:33:37.862Z,994.93
2019-05-06T06:34:37.854Z,994.92
2019-05-06T06:35:37.846Z,994.93
2019-05-06T06:36:37.840Z,994.92
2019-05-06T06:37:37.833Z,994.94
2019-05-06T06:38:37.825Z,994.92
2019-05-06T06:39:37.819Z,994.93
2019-05-06T06:40:37.816Z,994.88
2019-05-06T06:41:37.807Z,994.9
2019-05-06T06:42:37.800Z,994.86
2019-05-06T06:43:37.993Z,994.87
2019-05-06T06:44:37.792Z,994.95
2019-05-06T06:45:37.778Z,994.88
2019-05-06T06:46:37.776Z,994.92
2019-05-06T06:47:37.771Z,994.9
2019-05-06T06:48:37.761Z,994.87
2019-05-06T06:49:37.752Z,994.89
2019-05-06T06:50:37.750Z,994.88
2019-05-06T06:51:37.744Z,994.88
2019-05-06T06:52:37.738Z,994.88
2019-05-06T06:53:37.729Z,994.88
2019-05-06T06:54:37.725Z,994.9
2019-05-06T06:55:37.718Z,994.91
2019-05-06T06:56:37.755Z,994.87
2019-05-06T06:57:37.707Z,994.91
2019-05-06T06:58:37.710Z,994.85
2019-05-06T06:59:37.695Z,994.89
2019-05-06T07:00:37.685Z,994.87
2019-05-06T07:01:37.680Z,994.93
2019-05-06T07:02:37.676Z,994.95
2019-05-06T07:03:37.678Z,994.92
2019-05-06T07:04:37.674Z,994.9
2019-05-06T07:05:37.662Z,994.93
2019-05-06T07:06:37.649Z,994.92
2019-05-06T07:07:43.302Z,994.95
2019-05-06T07:08:37.935Z,994.93
2019-05-06T07:09:37.627Z,994.94
2019-05-06T07:10:37.621Z,994.97
2019-05-06T07:11:37.621Z,994.97
2019-05-06T07:12:37.620Z,995.01
2019-05-06T07:13:42.103Z,995.03
2019-05-06T07:14:37.592Z,995
2019-05-06T07:15:37.584Z,995.01
2019-05-06T07:16:37.582Z,994.99
2019-05-06T07:17:37.578Z,994.96
2019-05-06T07:18:37.571Z,994.98
2019-05-06T07:19:37.559Z,995
2019-05-06T07:20:37.563Z,994.98
2019-05-06T07:21:37.685Z,994.97
2019-05-06T07:22:37.549Z,994.96
2019-05-06T07:23:37.541Z,994.95
2019-05-06T07:24:37.528Z,994.96
2019-05-06T07:25:37.530Z,994.94
2019-05-06T07:26:37.519Z,994.96
2019-05-06T07:27:37.511Z,994.94
2019-05-06T07:28:37.504Z,994.98
2019-05-06T07:29:37.494Z,994.91
2019-05-06T07:30:37.490Z,994.91
2019-05-06T07:31:37.482Z,994.91
2019-05-06T07:32:37.474Z,994.89
2019-05-06T07:33:37.470Z,994.88
2019-05-06T07:34:37.480Z,994.91
2019-05-06T07:35:40.829Z,994.89
2019-05-06T07:36:37.453Z,994.86
2019-05-06T07:37:37.463Z,994.9
2019-05-06T07:38:37.439Z,994.88
2019-05-06T07:39:37.437Z,994.95
2019-05-06T07:40:37.429Z,994.96
2019-05-06T07:41:37.426Z,994.93
2019-05-06T07:42:37.420Z,994.97
2019-05-06T07:43:37.412Z,994.95
2019-05-06T07:44:37.407Z,994.97
2019-05-06T07:45:37.401Z,994.99
2019-05-06T07:46:37.400Z,995
2019-05-06T07:47:37.393Z,995
2019-05-06T07:48:37.387Z,995
2019-05-06T07:49:37.387Z,995.01
2019-05-06T07:50:37.384Z,995.02
2019-05-06T07:51:37.373Z,995.06
2019-05-06T07:52:37.371Z,995.05
2019-05-06T07:53:37.373Z,995.07
2019-05-06T07:54:37.359Z,995.09
2019-05-06T07:55:37.362Z,995.03
2019-05-06T07:56:37.351Z,995
2019-05-06T07:57:37.348Z,995.05
2019-05-06T07:58:37.342Z,995.04
2019-05-06T07:59:37.338Z,995.1
2019-05-06T08:00:37.337Z,995.1
2019-05-06T08:01:37.330Z,995.04
2019-05-06T08:02:37.324Z,995.01
2019-05-06T08:03:37.324Z,995.07
2019-05-06T08:04:37.318Z,995.04
2019-05-06T08:05:37.314Z,995.04
2019-05-06T08:06:37.314Z,995.05
2019-05-06T08:07:37.315Z,995.05
2019-05-06T08:08:37.326Z,995.05
2019-05-06T08:09:37.303Z,994.97
2019-05-06T08:10:37.297Z,995.01
2019-05-06T08:11:37.294Z,994.99
2019-05-06T08:12:37.294Z,994.97
2019-05-06T08:13:37.290Z,994.97
2019-05-06T08:14:39.045Z,994.94
2019-05-06T08:15:37.284Z,994.91
2019-05-06T08:16:37.278Z,994.89
2019-05-06T08:17:37.274Z,994.92
2019-05-06T08:18:37.270Z,994.93
2019-05-06T08:19:37.278Z,994.93
2019-05-06T08:20:37.270Z,994.94
2019-05-06T08:21:37.264Z,994.92
2019-05-06T08:22:37.262Z,994.96
2019-05-06T08:23:37.265Z,995.07
2019-05-06T08:24:37.254Z,995.04
2019-05-06T08:25:37.247Z,995.04
2019-05-06T08:26:37.249Z,995.03
2019-05-06T08:27:37.249Z,995.01
2019-05-06T08:28:41.348Z,995.02
2019-05-06T08:29:37.236Z,995.05
2019-05-06T08:30:37.323Z,995
2019-05-06T08:31:37.229Z,995
2019-05-06T08:32:37.224Z,995.01
2019-05-06T08:33:37.272Z,994.99
2019-05-06T08:34:37.216Z,995.06
2019-05-06T08:35:37.220Z,995.05
2019-05-06T08:36:37.209Z,995.04
2019-05-06T08:37:37.206Z,995.05
2019-05-06T08:38:37.201Z,995.08
2019-05-06T08:39:37.197Z,995.07
2019-05-06T08:40:37.205Z,995.05
2019-05-06T08:41:37.203Z,995.08
2019-05-06T08:42:37.189Z,995.1
2019-05-06T08:43:37.187Z,995.12
2019-05-06T08:44:37.180Z,995.12
2019-05-06T08:45:37.179Z,995.06
2019-05-06T08:46:37.177Z,995.12
2019-05-06T08:47:37.170Z,995.14
2019-05-06T08:48:37.170Z,995.11
2019-05-06T08:49:37.165Z,995.14
2019-05-06T08:50:37.172Z,995.1
2019-05-06T08:51:37.160Z,995.09
2019-05-06T08:52:37.155Z,995.05
2019-05-06T08:53:37.153Z,995.01
2019-05-06T08:54:37.157Z,994.98
2019-05-06T08:55:37.150Z,994.98
2019-05-06T08:56:37.149Z,994.98
2019-05-06T08:57:37.149Z,994.97
2019-05-06T08:58:37.147Z,994.98
2019-05-06T08:59:37.140Z,994.9
2019-05-06T09:00:37.146Z,994.97
2019-05-06T09:01:37.150Z,994.92
2019-05-06T09:02:37.148Z,994.96
2019-05-06T09:03:37.140Z,994.95
2019-05-06T09:04:37.133Z,994.94
2019-05-06T09:05:37.132Z,994.9
2019-05-06T09:06:37.130Z,994.92
2019-05-06T09:07:37.126Z,994.98
2019-05-06T09:08:37.129Z,994.91
2019-05-06T09:09:37.124Z,994.94
2019-05-06T09:10:37.120Z,994.96
2019-05-06T09:11:37.116Z,994.94
2019-05-06T09:12:37.117Z,994.96
2019-05-06T09:13:37.110Z,994.97
2019-05-06T09:14:37.111Z,995
2019-05-06T09:15:37.406Z,994.96
2019-05-06T09:16:37.103Z,994.96
2019-05-06T09:17:37.101Z,994.93
2019-05-06T09:18:37.097Z,994.94
2019-05-06T09:19:37.106Z,994.97
2019-05-06T09:20:37.100Z,994.96
2019-05-06T09:21:37.105Z,994.99
2019-05-06T09:22:37.100Z,995.01
2019-05-06T09:23:37.099Z,995.02
2019-05-06T09:24:37.079Z,994.98
2019-05-06T09:25:37.077Z,995.01
2019-05-06T09:26:37.074Z,995
2019-05-06T09:27:37.072Z,995
2019-05-06T09:28:37.077Z,995.02
2019-05-06T09:29:37.075Z,995.06
2019-05-06T09:30:37.114Z,995.05
2019-05-06T09:31:37.082Z,995.11
2019-05-06T09:32:37.075Z,995.1
2019-05-06T09:33:37.055Z,995.1
2019-05-06T09:34:37.049Z,995.13
2019-05-06T09:35:37.044Z,995.16
2019-05-06T09:36:43.666Z,995.14
2019-05-06T09:37:37.059Z,995.13
2019-05-06T09:38:37.037Z,995.16
2019-05-06T09:39:37.046Z,995.19
2019-05-06T09:40:37.032Z,995.17
2019-05-06T09:41:37.089Z,995.17
2019-05-06T09:42:37.026Z,995.16
2019-05-06T09:43:37.028Z,995.18
2019-05-06T09:44:37.021Z,995.19
2019-05-06T09:45:37.824Z,995.13
2019-05-06T09:46:37.015Z,995.15
2019-05-06T09:47:37.016Z,995.12
2019-05-06T09:48:37.016Z,995.12
2019-05-06T09:49:37.018Z,995.09
2019-05-06T09:50:37.053Z,995.1
2019-05-06T09:51:37.000Z,995.07
2019-05-06T09:52:37.002Z,995.08
2019-05-06T09:53:36.994Z,995.04
2019-05-06T09:54:36.992Z,995.06
2019-05-06T09:55:36.987Z,995.02
2019-05-06T09:56:36.991Z,995.01
2019-05-06T09:57:37.684Z,994.96
2019-05-06T09:58:36.983Z,994.94
2019-05-06T09:59:36.979Z,994.93
2019-05-06T10:00:36.983Z,994.93
2019-05-06T10:01:36.985Z,994.96
2019-05-06T10:02:36.974Z,994.97
2019-05-06T10:03:36.964Z,995.01
2019-05-06T10:04:36.964Z,994.95
2019-05-06T10:05:36.962Z,994.94
2019-05-06T10:06:36.960Z,994.97
2019-05-06T10:07:36.970Z,994.95
2019-05-06T10:08:36.954Z,994.94
2019-05-06T10:09:36.950Z,994.93
2019-05-06T10:10:36.947Z,994.88
2019-05-06T10:11:36.943Z,994.92
2019-05-06T10:12:36.945Z,994.9
2019-05-06T10:13:36.951Z,994.9
2019-05-06T10:14:36.937Z,994.93
2019-05-06T10:15:36.934Z,994.9
2019-05-06T10:16:36.933Z,994.95
2019-05-06T10:17:36.934Z,994.99
2019-05-06T10:18:36.930Z,994.96
2019-05-06T10:19:36.933Z,994.98
2019-05-06T10:20:36.922Z,994.99
2019-05-06T10:21:36.918Z,995.05
2019-05-06T10:22:36.931Z,994.99
2019-05-06T10:23:36.913Z,994.9
2019-05-06T10:24:36.910Z,994.92
2019-05-06T10:25:36.908Z,994.91
2019-05-06T10:26:36.908Z,994.92
2019-05-06T10:27:36.916Z,994.94
2019-05-06T10:28:36.898Z,994.85
2019-05-06T10:29:36.905Z,994.83
2019-05-06T10:30:36.894Z,994.83
2019-05-06T10:31:36.892Z,994.79
2019-05-06T10:32:36.918Z,994.8
2019-05-06T10:33:36.885Z,994.82
2019-05-06T10:34:36.881Z,994.82
2019-05-06T10:35:36.881Z,994.76
2019-05-06T10:36:36.878Z,994.69
2019-05-06T10:37:36.878Z,994.7
2019-05-06T10:38:36.882Z,994.74
2019-05-06T10:39:36.871Z,994.72
2019-05-06T10:40:44.073Z,994.73
2019-05-06T10:41:36.873Z,994.71
2019-05-06T10:42:36.868Z,994.73
2019-05-06T10:43:36.867Z,994.72
2019-05-06T10:44:36.862Z,994.66
2019-05-06T10:45:36.858Z,994.61
2019-05-06T10:46:37.013Z,994.58
2019-05-06T10:47:36.858Z,994.63
2019-05-06T10:48:36.857Z,994.59
2019-05-06T10:49:36.855Z,994.6
2019-05-06T10:50:36.851Z,994.61
2019-05-06T10:51:36.852Z,994.64
2019-05-06T10:52:36.854Z,994.59
2019-05-06T10:53:36.845Z,994.6
2019-05-06T10:54:36.840Z,994.53
2019-05-06T10:55:36.841Z,994.5
2019-05-06T10:56:49.733Z,994.53
2019-05-06T10:57:36.849Z,994.57
2019-05-06T10:58:36.832Z,994.57
2019-05-06T10:59:36.831Z,994.54
2019-05-06T11:00:36.830Z,994.59
2019-05-06T11:01:36.836Z,994.62
2019-05-06T11:02:36.835Z,994.63
2019-05-06T11:03:36.836Z,994.62
2019-05-06T11:04:36.823Z,994.59
2019-05-06T11:05:36.815Z,994.62
2019-05-06T11:06:36.815Z,994.6
2019-05-06T11:07:36.821Z,994.53
2019-05-06T11:08:36.812Z,994.47
2019-05-06T11:09:36.810Z,994.43
2019-05-06T11:10:41.061Z,994.48
2019-05-06T11:11:38.614Z,994.4
2019-05-06T11:12:36.814Z,994.43
2019-05-06T11:13:36.808Z,994.5
2019-05-06T11:14:36.808Z,994.4
2019-05-06T11:15:36.806Z,994.43
2019-05-06T11:16:37.010Z,994.48
2019-05-06T11:17:36.815Z,994.44
2019-05-06T11:18:36.820Z,994.44
2019-05-06T11:19:36.805Z,994.36
2019-05-06T11:20:36.805Z,994.33
2019-05-06T11:21:36.797Z,994.35
2019-05-06T11:22:36.811Z,994.21
2019-05-06T11:23:36.797Z,994.19
2019-05-06T11:24:36.795Z,994.13
2019-05-06T11:25:37.736Z,994.13
2019-05-06T11:26:36.794Z,994.12
2019-05-06T11:27:38.371Z,994.12
2019-05-06T11:28:36.793Z,994.1
2019-05-06T11:29:36.890Z,994.1
2019-05-06T11:30:36.798Z,994.09
2019-05-06T11:31:36.859Z,994.15
2019-05-06T11:32:37.247Z,994.12
2019-05-06T11:33:36.793Z,994.21
2019-05-06T11:34:36.786Z,994.17
2019-05-06T11:35:36.784Z,994.16
2019-05-06T11:36:37.607Z,994.21
2019-05-06T11:37:46.800Z,994.17
2019-05-06T11:38:36.783Z,994.25
2019-05-06T11:39:36.782Z,994.2
2019-05-06T11:40:36.778Z,994.2
2019-05-06T11:41:36.779Z,994.21
2019-05-06T11:42:36.788Z,994.23
2019-05-06T11:43:36.773Z,994.25
2019-05-06T11:44:36.769Z,994.25
2019-05-06T11:45:36.767Z,994.21
2019-05-06T11:46:38.518Z,994.27
2019-05-06T11:47:36.780Z,994.29
2019-05-06T11:48:36.762Z,994.29
2019-05-06T11:49:36.762Z,994.24
2019-05-06T11:50:36.764Z,994.28
2019-05-06T11:51:36.750Z,994.27
2019-05-06T11:52:36.761Z,994.32
2019-05-06T11:53:36.744Z,994.33
2019-05-06T11:54:36.743Z,994.34
2019-05-06T11:55:38.714Z,994.37
2019-05-06T11:56:47.696Z,994.37
2019-05-06T11:57:36.733Z,994.43
2019-05-06T11:58:36.725Z,994.4
2019-05-06T11:59:36.728Z,994.37
2019-05-06T12:00:36.718Z,994.39
2019-05-06T12:01:36.716Z,994.38
2019-05-06T12:02:36.727Z,994.37
2019-05-06T12:03:36.704Z,994.42
2019-05-06T12:04:36.707Z,994.41
2019-05-06T12:05:36.699Z,994.41
2019-05-06T12:06:36.703Z,994.4
2019-05-06T12:07:36.709Z,994.4
2019-05-06T12:08:36.686Z,994.45
2019-05-06T12:09:36.682Z,994.45
2019-05-06T12:10:36.681Z,994.46
2019-05-06T12:11:36.673Z,994.47
2019-05-06T12:12:36.675Z,994.46
2019-05-06T12:13:38.219Z,994.46
2019-05-06T12:14:36.672Z,994.44
2019-05-06T12:15:36.663Z,994.52
2019-05-06T12:16:36.654Z,994.51
2019-05-06T12:17:36.960Z,994.54
2019-05-06T12:18:36.643Z,994.57
2019-05-06T12:19:36.642Z,994.53
2019-05-06T12:20:36.638Z,994.52
2019-05-06T12:21:36.637Z,994.55
2019-05-06T12:22:36.641Z,994.51
2019-05-06T12:23:36.626Z,994.52
2019-05-06T12:24:36.622Z,994.54
2019-05-06T12:25:36.618Z,994.54
2019-05-06T12:26:36.616Z,994.52
2019-05-06T12:27:36.638Z,994.5
2019-05-06T12:28:36.610Z,994.5
2019-05-06T12:29:38.348Z,994.52
2019-05-06T12:30:36.610Z,994.53
2019-05-06T12:31:36.602Z,994.5
2019-05-06T12:32:36.866Z,994.49
2019-05-06T12:33:36.589Z,994.53
2019-05-06T12:34:36.588Z,994.56